Terminal Aerodrome Forecast
Issued by NWS

Home | Current Version | Previous Version | Text Only | Print | Product List | Glossary On
Versions: 1 2 3 4 5 6 7 8 9 10 11 12 13 14 15 16 17 18 19 20 21 22 23
000
FTUS45 KGJT 241732
TAFVEL
TAF
KVEL 241732Z 2418/2518 22004KT P6SM FEW050 BKN060
     FM250000 VRB03KT P6SM SCT250
     FM251200 VRB03KT P6SM OVC100
     FM251600 VRB03KT P6SM BKN050 OVC100=

USA.gov is the U.S. government's official web portal to all federal, state and local government web resources and services.